sensor_id;sensor_type;location;lat;lon;timestamp;pressure;altitude;pressure_sealevel;temperature;humidity
3440;BME280;1733;42.286;22.690;2023-03-26T00:01:37;95114.13;;;12.84;91.24
3440;BME280;1733;42.286;22.690;2023-03-26T00:04:05;95117.06;;;12.87;89.62
3440;BME280;1733;42.286;22.690;2023-03-26T00:06:34;95115.44;;;12.86;89.61
3440;BME280;1733;42.286;22.690;2023-03-26T00:09:05;95120.50;;;12.88;89.99
3440;BME280;1733;42.286;22.690;2023-03-26T00:11:34;95122.34;;;12.87;89.71
3440;BME280;1733;42.286;22.690;2023-03-26T00:14:01;95123.91;;;12.88;90.23
3440;BME280;1733;42.286;22.690;2023-03-26T00:16:30;95131.84;;;12.93;89.24
3440;BME280;1733;42.286;22.690;2023-03-26T00:18:57;95127.34;;;12.89;89.96
3440;BME280;1733;42.286;22.690;2023-03-26T00:21:27;95133.91;;;12.86;90.11
3440;BME280;1733;42.286;22.690;2023-03-26T00:23:56;95137.63;;;12.85;89.86
3440;BME280;1733;42.286;22.690;2023-03-26T00:26:24;95132.34;;;12.85;88.07
3440;BME280;1733;42.286;22.690;2023-03-26T00:28:52;95129.69;;;12.85;88.70
3440;BME280;1733;42.286;22.690;2023-03-26T00:31:19;95130.25;;;12.87;87.86
3440;BME280;1733;42.286;22.690;2023-03-26T00:33:46;95134.47;;;12.88;88.18
3440;BME280;1733;42.286;22.690;2023-03-26T00:36:15;95131.81;;;12.83;88.45
3440;BME280;1733;42.286;22.690;2023-03-26T00:38:44;95131.00;;;12.77;88.37
3440;BME280;1733;42.286;22.690;2023-03-26T00:41:14;95126.00;;;12.71;88.31
3440;BME280;1733;42.286;22.690;2023-03-26T00:43:48;95119.13;;;12.70;88.52
3440;BME280;1733;42.286;22.690;2023-03-26T00:46:17;95112.53;;;12.72;88.54
3440;BME280;1733;42.286;22.690;2023-03-26T00:48:45;95108.81;;;12.68;89.19
3440;BME280;1733;42.286;22.690;2023-03-26T00:51:13;95110.66;;;12.63;89.50
3440;BME280;1733;42.286;22.690;2023-03-26T00:53:41;95096.09;;;12.50;90.55
3440;BME280;1733;42.286;22.690;2023-03-26T00:56:09;95081.84;;;12.46;90.88
3440;BME280;1733;42.286;22.690;2023-03-26T00:58:36;95066.53;;;12.33;91.33
3440;BME280;1733;42.286;22.690;2023-03-26T01:01:05;95064.91;;;12.27;92.73
3440;BME280;1733;42.286;22.690;2023-03-26T01:03:35;95072.25;;;12.14;93.29
3440;BME280;1733;42.286;22.690;2023-03-26T01:06:03;95074.81;;;11.99;94.91
3440;BME280;1733;42.286;22.690;2023-03-26T01:08:34;95082.38;;;11.85;97.17
3440;BME280;1733;42.286;22.690;2023-03-26T01:11:06;95074.88;;;11.67;100.00
3440;BME280;1733;42.286;22.690;2023-03-26T01:13:40;95070.41;;;11.67;100.00
3440;BME280;1733;42.286;22.690;2023-03-26T01:16:16;95074.19;;;11.82;98.45
3440;BME280;1733;42.286;22.690;2023-03-26T01:18:46;95082.66;;;11.84;97.70
3440;BME280;1733;42.286;22.690;2023-03-26T01:21:16;95077.56;;;11.77;97.99
3440;BME280;1733;42.286;22.690;2023-03-26T01:23:50;95091.72;;;11.66;98.86
3440;BME280;1733;42.286;22.690;2023-03-26T01:29:23;95101.84;;;11.47;97.69
3440;BME280;1733;42.286;22.690;2023-03-26T01:32:02;95095.81;;;11.52;95.54
3440;BME280;1733;42.286;22.690;2023-03-26T01:34:43;95103.94;;;11.45;95.02
3440;BME280;1733;42.286;22.690;2023-03-26T01:37:19;95104.16;;;11.38;95.17
3440;BME280;1733;42.286;22.690;2023-03-26T01:39:53;95111.44;;;11.26;97.07
3440;BME280;1733;42.286;22.690;2023-03-26T01:42:28;95105.25;;;11.10;99.40
3440;BME280;1733;42.286;22.690;2023-03-26T01:45:04;95110.41;;;11.00;100.00
3440;BME280;1733;42.286;22.690;2023-03-26T01:47:34;95108.78;;;10.94;100.00
3440;BME280;1733;42.286;22.690;2023-03-26T01:50:03;95107.81;;;11.05;100.00
3440;BME280;1733;42.286;22.690;2023-03-26T01:52:30;95104.19;;;11.11;98.93
3440;BME280;1733;42.286;22.690;2023-03-26T01:54:57;95107.06;;;11.10;97.60
3440;BME280;1733;42.286;22.690;2023-03-26T01:57:33;95106.78;;;11.06;96.75
3440;BME280;1733;42.286;22.690;2023-03-26T02:00:12;95099.94;;;11.05;95.50
3440;BME280;1733;42.286;22.690;2023-03-26T02:02:55;95119.19;;;11.11;94.56
3440;BME280;1733;42.286;22.690;2023-03-26T02:05:28;95120.72;;;11.07;93.71
3440;BME280;1733;42.286;22.690;2023-03-26T02:08:04;95117.81;;;11.03;92.59
3440;BME280;1733;42.286;22.690;2023-03-26T02:10:37;95124.84;;;10.98;92.41
3440;BME280;1733;42.286;22.690;2023-03-26T02:13:08;95126.44;;;10.99;91.33
3440;BME280;1733;42.286;22.690;2023-03-26T02:15:35;95133.97;;;10.90;92.01
3440;BME280;1733;42.286;22.690;2023-03-26T02:18:02;95133.22;;;10.95;90.79
3440;BME280;1733;42.286;22.690;2023-03-26T02:20:29;95129.75;;;10.89;90.90
3440;BME280;1733;42.286;22.690;2023-03-26T02:22:56;95128.63;;;10.80;90.00
3440;BME280;1733;42.286;22.690;2023-03-26T02:25:24;95144.88;;;10.77;90.28
3440;BME280;1733;42.286;22.690;2023-03-26T02:27:51;95147.91;;;10.63;91.44
3440;BME280;1733;42.286;22.690;2023-03-26T02:30:22;95160.44;;;10.56;92.28
3440;BME280;1733;42.286;22.690;2023-03-26T02:32:50;95155.66;;;10.53;92.31
3440;BME280;1733;42.286;22.690;2023-03-26T02:35:18;95155.66;;;10.53;92.92
3440;BME280;1733;42.286;22.690;2023-03-26T02:37:46;95157.56;;;10.58;91.45
3440;BME280;1733;42.286;22.690;2023-03-26T02:40:16;95161.97;;;10.52;91.88
3440;BME280;1733;42.286;22.690;2023-03-26T02:42:43;95153.75;;;10.49;91.96
3440;BME280;1733;42.286;22.690;2023-03-26T02:45:10;95172.47;;;10.52;91.42
3440;BME280;1733;42.286;22.690;2023-03-26T02:47:38;95161.28;;;10.40;91.91
3440;BME280;1733;42.286;22.690;2023-03-26T02:50:05;95173.13;;;10.43;91.20
3440;BME280;1733;42.286;22.690;2023-03-26T02:52:33;95167.59;;;10.39;90.77
3440;BME280;1733;42.286;22.690;2023-03-26T02:55:00;95172.16;;;10.27;92.23
3440;BME280;1733;42.286;22.690;2023-03-26T02:57:28;95179.47;;;10.25;92.06
3440;BME280;1733;42.286;22.690;2023-03-26T02:59:55;95181.38;;;10.12;92.94
3440;BME280;1733;42.286;22.690;2023-03-26T03:02:23;95185.84;;;10.12;93.38
3440;BME280;1733;42.286;22.690;2023-03-26T03:04:51;95192.69;;;10.13;92.86
3440;BME280;1733;42.286;22.690;2023-03-26T03:07:26;95194.63;;;10.01;94.91
3440;BME280;1733;42.286;22.690;2023-03-26T03:09:53;95196.94;;;9.97;94.78
3440;BME280;1733;42.286;22.690;2023-03-26T03:12:20;95207.06;;;9.89;95.86
3440;BME280;1733;42.286;22.690;2023-03-26T03:14:47;95215.63;;;9.84;96.59
3440;BME280;1733;42.286;22.690;2023-03-26T03:17:14;95209.34;;;9.85;96.33
3440;BME280;1733;42.286;22.690;2023-03-26T03:19:40;95199.88;;;9.84;95.54
3440;BME280;1733;42.286;22.690;2023-03-26T03:22:09;95204.19;;;9.90;94.65
3440;BME280;1733;42.286;22.690;2023-03-26T03:24:36;95211.84;;;9.92;94.55
3440;BME280;1733;42.286;22.690;2023-03-26T03:27:03;95218.59;;;10.04;92.68
3440;BME280;1733;42.286;22.690;2023-03-26T03:29:30;95224.06;;;10.03;93.57
3440;BME280;1733;42.286;22.690;2023-03-26T03:31:57;95223.25;;;10.02;92.74
3440;BME280;1733;42.286;22.690;2023-03-26T03:34:24;95225.81;;;10.14;90.09
3440;BME280;1733;42.286;22.690;2023-03-26T03:36:51;95231.94;;;10.20;88.86
3440;BME280;1733;42.286;22.690;2023-03-26T03:39:19;95226.56;;;10.26;87.92
3440;BME280;1733;42.286;22.690;2023-03-26T03:41:46;95227.72;;;10.35;85.71
3440;BME280;1733;42.286;22.690;2023-03-26T03:44:13;95232.25;;;10.40;84.27
3440;BME280;1733;42.286;22.690;2023-03-26T03:46:41;95236.78;;;10.45;84.52
3440;BME280;1733;42.286;22.690;2023-03-26T03:49:08;95234.94;;;10.45;85.07
3440;BME280;1733;42.286;22.690;2023-03-26T03:51:35;95240.69;;;10.42;85.76
3440;BME280;1733;42.286;22.690;2023-03-26T03:54:01;95240.50;;;10.49;84.98
3440;BME280;1733;42.286;22.690;2023-03-26T03:56:31;95236.09;;;10.54;83.80
3440;BME280;1733;42.286;22.690;2023-03-26T03:58:58;95236.09;;;10.54;83.97
3440;BME280;1733;42.286;22.690;2023-03-26T04:01:25;95238.19;;;10.52;83.68
3440;BME280;1733;42.286;22.690;2023-03-26T04:03:55;95240.56;;;10.54;81.68
3440;BME280;1733;42.286;22.690;2023-03-26T04:06:21;95241.44;;;10.59;81.79
3440;BME280;1733;42.286;22.690;2023-03-26T04:08:49;95248.00;;;10.57;81.49
3440;BME280;1733;42.286;22.690;2023-03-26T04:11:17;95238.16;;;10.69;79.90
3440;BME280;1733;42.286;22.690;2023-03-26T04:13:45;95244.53;;;10.73;79.82
3440;BME280;1733;42.286;22.690;2023-03-26T04:16:12;95246.91;;;10.75;79.83
3440;BME280;1733;42.286;22.690;2023-03-26T04:18:39;95245.38;;;10.79;79.06
3440;BME280;1733;42.286;22.690;2023-03-26T04:21:06;95254.28;;;10.78;79.08
3440;BME280;1733;42.286;22.690;2023-03-26T04:23:34;95252.56;;;10.66;80.33
3440;BME280;1733;42.286;22.690;2023-03-26T04:26:02;95258.06;;;10.65;80.87
3440;BME280;1733;42.286;22.690;2023-03-26T04:28:32;95254.03;;;10.57;81.08
3440;BME280;1733;42.286;22.690;2023-03-26T04:31:02;95252.53;;;10.61;81.04
3440;BME280;1733;42.286;22.690;2023-03-26T04:33:30;95263.16;;;10.50;81.49
3440;BME280;1733;42.286;22.690;2023-03-26T04:35:58;95258.59;;;10.45;82.13
3440;BME280;1733;42.286;22.690;2023-03-26T04:38:28;95260.75;;;10.48;81.18
3440;BME280;1733;42.286;22.690;2023-03-26T04:40:58;95267.03;;;10.47;81.33
3440;BME280;1733;42.286;22.690;2023-03-26T04:43:25;95273.81;;;10.43;81.25
3440;BME280;1733;42.286;22.690;2023-03-26T04:45:52;95271.13;;;10.38;80.64
3440;BME280;1733;42.286;22.690;2023-03-26T04:48:20;95281.56;;;10.33;81.53
3440;BME280;1733;42.286;22.690;2023-03-26T04:50:48;95290.00;;;10.35;81.04
3440;BME280;1733;42.286;22.690;2023-03-26T04:53:17;95295.50;;;10.33;80.58
3440;BME280;1733;42.286;22.690;2023-03-26T04:55:49;95305.22;;;10.33;81.08
3440;BME280;1733;42.286;22.690;2023-03-26T04:58:19;95303.59;;;10.32;81.65
3440;BME280;1733;42.286;22.690;2023-03-26T05:00:46;95306.81;;;10.34;81.92
3440;BME280;1733;42.286;22.690;2023-03-26T05:03:14;95310.56;;;10.38;81.44
3440;BME280;1733;42.286;22.690;2023-03-26T05:05:42;95311.00;;;10.35;82.08
3440;BME280;1733;42.286;22.690;2023-03-26T05:08:09;95324.25;;;10.40;82.38
3440;BME280;1733;42.286;22.690;2023-03-26T05:10:36;95323.28;;;10.46;82.67
3440;BME280;1733;42.286;22.690;2023-03-26T05:13:03;95317.38;;;10.56;82.70
3440;BME280;1733;42.286;22.690;2023-03-26T05:15:30;95318.41;;;10.55;82.43
3440;BME280;1733;42.286;22.690;2023-03-26T05:17:57;95317.38;;;10.56;82.31
3440;BME280;1733;42.286;22.690;2023-03-26T05:20:25;95322.31;;;10.52;83.04
3440;BME280;1733;42.286;22.690;2023-03-26T05:22:55;95322.63;;;10.56;83.20
3440;BME280;1733;42.286;22.690;2023-03-26T05:25:22;95336.25;;;10.53;79.63
3440;BME280;1733;42.286;22.690;2023-03-26T05:27:49;95345.50;;;10.55;81.10
3440;BME280;1733;42.286;22.690;2023-03-26T05:30:17;95336.00;;;10.54;80.88
3440;BME280;1733;42.286;22.690;2023-03-26T05:32:45;95348.19;;;10.60;79.96
3440;BME280;1733;42.286;22.690;2023-03-26T05:35:13;95348.97;;;10.61;79.34
3440;BME280;1733;42.286;22.690;2023-03-26T05:37:41;95360.69;;;10.70;79.75
3440;BME280;1733;42.286;22.690;2023-03-26T05:40:12;95364.91;;;10.71;81.29
3440;BME280;1733;42.286;22.690;2023-03-26T05:42:41;95371.81;;;10.77;82.03
3440;BME280;1733;42.286;22.690;2023-03-26T05:45:10;95377.41;;;10.81;82.18
3440;BME280;1733;42.286;22.690;2023-03-26T05:47:37;95368.00;;;10.85;82.13
3440;BME280;1733;42.286;22.690;2023-03-26T05:50:05;95372.69;;;10.83;82.88
3440;BME280;1733;42.286;22.690;2023-03-26T05:52:33;95360.59;;;10.82;83.14
3440;BME280;1733;42.286;22.690;2023-03-26T05:55:00;95362.16;;;11.00;81.53
3440;BME280;1733;42.286;22.690;2023-03-26T05:57:29;95359.75;;;11.37;81.19
3440;BME280;1733;42.286;22.690;2023-03-26T05:59:56;95361.78;;;11.79;79.16
3440;BME280;1733;42.286;22.690;2023-03-26T06:02:23;95361.63;;;12.17;76.67
3440;BME280;1733;42.286;22.690;2023-03-26T06:04:50;95352.44;;;12.52;71.10
3440;BME280;1733;42.286;22.690;2023-03-26T06:07:17;95354.28;;;12.89;69.10
3440;BME280;1733;42.286;22.690;2023-03-26T06:09:44;95355.47;;;13.13;61.74
3440;BME280;1733;42.286;22.690;2023-03-26T06:12:11;95350.09;;;13.45;60.81
3440;BME280;1733;42.286;22.690;2023-03-26T06:14:40;95355.44;;;13.71;59.91
3440;BME280;1733;42.286;22.690;2023-03-26T06:17:08;95346.78;;;14.01;59.58
3440;BME280;1733;42.286;22.690;2023-03-26T06:19:35;95343.91;;;14.13;58.17
3440;BME280;1733;42.286;22.690;2023-03-26T06:22:02;95346.81;;;14.16;55.44
3440;BME280;1733;42.286;22.690;2023-03-26T06:24:30;95349.47;;;14.21;55.37
3440;BME280;1733;42.286;22.690;2023-03-26T06:26:56;95348.66;;;14.31;55.47
3440;BME280;1733;42.286;22.690;2023-03-26T06:29:24;95349.97;;;14.44;54.76
3440;BME280;1733;42.286;22.690;2023-03-26T06:31:52;95348.16;;;14.39;54.64
3440;BME280;1733;42.286;22.690;2023-03-26T06:34:19;95356.91;;;14.50;54.36
3440;BME280;1733;42.286;22.690;2023-03-26T06:36:46;95360.09;;;14.67;53.27
3440;BME280;1733;42.286;22.690;2023-03-26T06:39:17;95354.00;;;14.61;53.77
3440;BME280;1733;42.286;22.690;2023-03-26T06:41:44;95361.63;;;14.78;53.26
3440;BME280;1733;42.286;22.690;2023-03-26T06:44:11;95361.41;;;14.75;51.01
3440;BME280;1733;42.286;22.690;2023-03-26T06:46:38;95357.44;;;14.57;51.59
3440;BME280;1733;42.286;22.690;2023-03-26T06:49:06;95356.66;;;14.61;52.05
3440;BME280;1733;42.286;22.690;2023-03-26T06:51:33;95354.00;;;14.61;52.33
3440;BME280;1733;42.286;22.690;2023-03-26T06:54:00;95360.59;;;14.59;50.90
3440;BME280;1733;42.286;22.690;2023-03-26T06:56:27;95342.09;;;14.54;50.11
3440;BME280;1733;42.286;22.690;2023-03-26T06:58:54;95347.66;;;14.62;50.29
3440;BME280;1733;42.286;22.690;2023-03-26T07:01:21;95352.13;;;14.77;50.45
3440;BME280;1733;42.286;22.690;2023-03-26T07:03:48;95352.59;;;15.00;49.66
3440;BME280;1733;42.286;22.690;2023-03-26T07:06:16;95349.75;;;14.76;49.97
3440;BME280;1733;42.286;22.690;2023-03-26T07:08:43;95345.50;;;14.44;52.31
3440;BME280;1733;42.286;22.690;2023-03-26T07:11:10;95350.25;;;14.42;51.54
3440;BME280;1733;42.286;22.690;2023-03-26T07:13:36;95352.66;;;14.54;52.44
3440;BME280;1733;42.286;22.690;2023-03-26T07:16:05;95351.00;;;15.04;52.04
3440;BME280;1733;42.286;22.690;2023-03-26T07:18:32;95354.81;;;15.52;51.60
3440;BME280;1733;42.286;22.690;2023-03-26T07:20:59;95347.75;;;15.92;50.23
3440;BME280;1733;42.286;22.690;2023-03-26T07:23:28;95347.31;;;16.24;50.02
3440;BME280;1733;42.286;22.690;2023-03-26T07:25:55;95345.44;;;16.25;47.95
3440;BME280;1733;42.286;22.690;2023-03-26T07:28:29;95350.66;;;16.35;50.42
3440;BME280;1733;42.286;22.690;2023-03-26T07:31:08;95345.66;;;16.28;49.67
3440;BME280;1733;42.286;22.690;2023-03-26T07:33:44;95343.22;;;16.37;48.62
3440;BME280;1733;42.286;22.690;2023-03-26T07:36:20;95343.78;;;16.63;48.05
3440;BME280;1733;42.286;22.690;2023-03-26T07:39:00;95336.59;;;16.97;48.43
3440;BME280;1733;42.286;22.690;2023-03-26T07:41:38;95341.88;;;16.73;46.32
3440;BME280;1733;42.286;22.690;2023-03-26T07:44:25;95331.19;;;16.49;46.58
3440;BME280;1733;42.286;22.690;2023-03-26T07:46:56;95333.69;;;15.96;47.61
3440;BME280;1733;42.286;22.690;2023-03-26T07:49:26;95335.09;;;16.23;48.96
3440;BME280;1733;42.286;22.690;2023-03-26T07:51:54;95335.56;;;16.64;48.39
3440;BME280;1733;42.286;22.690;2023-03-26T07:54:22;95333.34;;;17.06;48.36
3440;BME280;1733;42.286;22.690;2023-03-26T07:56:52;95336.41;;;17.18;46.10
3440;BME280;1733;42.286;22.690;2023-03-26T07:59:27;95334.03;;;17.16;44.96
3440;BME280;1733;42.286;22.690;2023-03-26T08:07:44;95328.50;;;17.55;44.71
3440;BME280;1733;42.286;22.690;2023-03-26T08:10:22;95332.94;;;17.41;43.19
3440;BME280;1733;42.286;22.690;2023-03-26T08:12:56;95325.59;;;17.09;42.28
3440;BME280;1733;42.286;22.690;2023-03-26T08:15:27;95319.03;;;17.01;42.44
3440;BME280;1733;42.286;22.690;2023-03-26T08:18:01;95322.28;;;17.22;43.19
3440;BME280;1733;42.286;22.690;2023-03-26T08:20:36;95324.50;;;17.58;42.45
3440;BME280;1733;42.286;22.690;2023-03-26T08:23:09;95318.09;;;17.59;43.54
3440;BME280;1733;42.286;22.690;2023-03-26T08:25:48;95318.88;;;17.60;42.64
3440;BME280;1733;42.286;22.690;2023-03-26T08:28:27;95319.13;;;17.63;41.18
3440;BME280;1733;42.286;22.690;2023-03-26T08:30:55;95315.81;;;17.05;40.95
3440;BME280;1733;42.286;22.690;2023-03-26T08:33:25;95320.94;;;16.72;42.15
3440;BME280;1733;42.286;22.690;2023-03-26T08:35:52;95322.31;;;16.64;41.40
3440;BME280;1733;42.286;22.690;2023-03-26T08:38:19;95317.66;;;17.04;42.16
3440;BME280;1733;42.286;22.690;2023-03-26T08:47:21;95316.22;;;17.60;39.49
3440;BME280;1733;42.286;22.690;2023-03-26T08:50:13;95300.44;;;17.25;39.82
3440;BME280;1733;42.286;22.690;2023-03-26T08:55:42;95303.66;;;17.65;40.72
3440;BME280;1733;42.286;22.690;2023-03-26T08:58:49;95301.59;;;18.19;40.52
3440;BME280;1733;42.286;22.690;2023-03-26T09:07:50;95283.78;;;18.00;39.53
3440;BME280;1733;42.286;22.690;2023-03-26T09:16:52;95277.34;;;18.85;38.36
3440;BME280;1733;42.286;22.690;2023-03-26T09:19:54;95276.81;;;18.83;37.65
3440;BME280;1733;42.286;22.690;2023-03-26T09:22:52;95270.50;;;19.34;39.01
3440;BME280;1733;42.286;22.690;2023-03-26T09:25:40;95267.34;;;19.19;38.55
3440;BME280;1733;42.286;22.690;2023-03-26T09:31:40;95270.91;;;19.28;40.20
3440;BME280;1733;42.286;22.690;2023-03-26T09:34:26;95262.66;;;19.65;38.82
3440;BME280;1733;42.286;22.690;2023-03-26T09:37:09;95257.47;;;19.60;37.58
3440;BME280;1733;42.286;22.690;2023-03-26T09:39:51;95265.00;;;19.81;37.70
3440;BME280;1733;42.286;22.690;2023-03-26T09:42:30;95252.28;;;20.00;37.61
3440;BME280;1733;42.286;22.690;2023-03-26T09:45:19;95246.09;;;19.91;36.05
3440;BME280;1733;42.286;22.690;2023-03-26T09:48:12;95241.47;;;19.83;36.84
3440;BME280;1733;42.286;22.690;2023-03-26T09:50:59;95238.66;;;20.02;37.35
3440;BME280;1733;42.286;22.690;2023-03-26T09:53:50;95239.56;;;19.97;36.88
3440;BME280;1733;42.286;22.690;2023-03-26T09:56:30;95233.00;;;20.26;36.82
3440;BME280;1733;42.286;22.690;2023-03-26T09:59:17;95222.34;;;20.03;35.20
3440;BME280;1733;42.286;22.690;2023-03-26T10:01:55;95218.66;;;19.40;35.93
3440;BME280;1733;42.286;22.690;2023-03-26T10:04:38;95213.88;;;19.15;36.81
3440;BME280;1733;42.286;22.690;2023-03-26T10:07:20;95208.09;;;19.35;38.34
3440;BME280;1733;42.286;22.690;2023-03-26T10:10:01;95205.06;;;19.78;37.42
3440;BME280;1733;42.286;22.690;2023-03-26T10:12:32;95206.78;;;19.83;36.12
3440;BME280;1733;42.286;22.690;2023-03-26T10:15:12;95192.13;;;19.22;34.93
3440;BME280;1733;42.286;22.690;2023-03-26T10:17:53;95187.44;;;18.91;35.64
3440;BME280;1733;42.286;22.690;2023-03-26T10:20:50;95188.13;;;19.47;37.57
3440;BME280;1733;42.286;22.690;2023-03-26T10:23:46;95181.09;;;19.87;36.98
3440;BME280;1733;42.286;22.690;2023-03-26T10:26:36;95182.44;;;20.29;35.59
3440;BME280;1733;42.286;22.690;2023-03-26T10:29:19;95182.13;;;20.53;35.16
3440;BME280;1733;42.286;22.690;2023-03-26T10:31:54;95167.75;;;20.80;34.22
3440;BME280;1733;42.286;22.690;2023-03-26T10:34:44;95167.28;;;20.78;32.95
3440;BME280;1733;42.286;22.690;2023-03-26T10:37:20;95172.31;;;20.80;34.51
3440;BME280;1733;42.286;22.690;2023-03-26T10:40:04;95167.78;;;20.89;33.27
3440;BME280;1733;42.286;22.690;2023-03-26T10:42:46;95171.50;;;20.39;32.78
3440;BME280;1733;42.286;22.690;2023-03-26T10:45:29;95164.31;;;20.17;33.23
3440;BME280;1733;42.286;22.690;2023-03-26T10:48:14;95154.25;;;20.14;33.63
3440;BME280;1733;42.286;22.690;2023-03-26T10:51:13;95153.88;;;19.76;33.63
3440;BME280;1733;42.286;22.690;2023-03-26T10:53:48;95157.81;;;19.79;36.54
3440;BME280;1733;42.286;22.690;2023-03-26T10:56:20;95150.41;;;19.98;34.48
3440;BME280;1733;42.286;22.690;2023-03-26T10:58:51;95155.19;;;19.65;33.96
3440;BME280;1733;42.286;22.690;2023-03-26T11:01:26;95142.75;;;20.05;36.52
3440;BME280;1733;42.286;22.690;2023-03-26T11:03:59;95145.56;;;20.31;33.76
3440;BME280;1733;42.286;22.690;2023-03-26T11:06:36;95150.72;;;19.74;33.09
3440;BME280;1733;42.286;22.690;2023-03-26T11:09:14;95140.41;;;19.81;33.36
3440;BME280;1733;42.286;22.690;2023-03-26T11:11:49;95133.25;;;20.22;34.03
3440;BME280;1733;42.286;22.690;2023-03-26T11:14:24;95131.66;;;20.52;32.72
3440;BME280;1733;42.286;22.690;2023-03-26T11:16:59;95130.69;;;20.96;31.69
3440;BME280;1733;42.286;22.690;2023-03-26T11:19:33;95128.41;;;20.55;32.37
3440;BME280;1733;42.286;22.690;2023-03-26T11:22:09;95119.16;;;20.30;31.52
3440;BME280;1733;42.286;22.690;2023-03-26T11:25:01;95124.22;;;19.19;32.82
3440;BME280;1733;42.286;22.690;2023-03-26T11:27:39;95108.09;;;18.88;33.21
3440;BME280;1733;42.286;22.690;2023-03-26T11:30:20;95109.59;;;18.80;33.55
3440;BME280;1733;42.286;22.690;2023-03-26T11:32:56;95109.56;;;19.08;32.91
3440;BME280;1733;42.286;22.690;2023-03-26T11:35:26;95099.09;;;19.56;33.94
3440;BME280;1733;42.286;22.690;2023-03-26T11:37:59;95097.19;;;20.33;33.30
3440;BME280;1733;42.286;22.690;2023-03-26T11:40:31;95089.50;;;20.88;32.08
3440;BME280;1733;42.286;22.690;2023-03-26T11:43:02;95088.16;;;21.34;32.41
3440;BME280;1733;42.286;22.690;2023-03-26T11:45:34;95090.13;;;21.81;31.92
3440;BME280;1733;42.286;22.690;2023-03-26T11:48:06;95087.63;;;21.75;30.81
3440;BME280;1733;42.286;22.690;2023-03-26T11:50:37;95081.56;;;22.04;31.79
3440;BME280;1733;42.286;22.690;2023-03-26T11:53:11;95089.94;;;21.94;30.11
3440;BME280;1733;42.286;22.690;2023-03-26T11:55:41;95081.69;;;22.08;30.82
3440;BME280;1733;42.286;22.690;2023-03-26T11:58:21;95063.00;;;22.38;29.29
3440;BME280;1733;42.286;22.690;2023-03-26T12:00:52;95074.03;;;22.74;30.39
3440;BME280;1733;42.286;22.690;2023-03-26T12:03:20;95065.81;;;22.79;28.64
3440;BME280;1733;42.286;22.690;2023-03-26T12:05:48;95047.78;;;23.09;29.96
3440;BME280;1733;42.286;22.690;2023-03-26T12:08:20;95044.72;;;23.20;29.43
3440;BME280;1733;42.286;22.690;2023-03-26T12:10:59;95040.56;;;22.80;28.73
3440;BME280;1733;42.286;22.690;2023-03-26T12:13:33;95035.63;;;22.91;29.04
3440;BME280;1733;42.286;22.690;2023-03-26T12:16:06;95027.22;;;23.34;29.83
3440;BME280;1733;42.286;22.690;2023-03-26T12:18:35;95025.50;;;22.97;27.73
3440;BME280;1733;42.286;22.690;2023-03-26T12:21:07;95028.25;;;23.42;29.73
3440;BME280;1733;42.286;22.690;2023-03-26T12:23:44;95025.25;;;23.23;27.95
3440;BME280;1733;42.286;22.690;2023-03-26T12:26:18;95018.72;;;23.12;28.79
3440;BME280;1733;42.286;22.690;2023-03-26T12:28:46;95008.63;;;23.29;30.07
3440;BME280;1733;42.286;22.690;2023-03-26T12:31:16;95011.28;;;23.83;28.84
3440;BME280;1733;42.286;22.690;2023-03-26T12:34:02;95004.72;;;23.27;28.67
3440;BME280;1733;42.286;22.690;2023-03-26T12:36:32;94991.50;;;23.55;28.95
3440;BME280;1733;42.286;22.690;2023-03-26T12:39:00;94988.34;;;23.53;27.78
3440;BME280;1733;42.286;22.690;2023-03-26T12:41:33;94992.09;;;23.27;27.79
3440;BME280;1733;42.286;22.690;2023-03-26T12:44:19;94993.34;;;22.67;28.71
3440;BME280;1733;42.286;22.690;2023-03-26T12:46:49;94992.00;;;23.03;28.02
3440;BME280;1733;42.286;22.690;2023-03-26T12:49:19;94990.38;;;23.44;27.94
3440;BME280;1733;42.286;22.690;2023-03-26T12:51:49;94977.50;;;23.37;28.22
3440;BME280;1733;42.286;22.690;2023-03-26T12:54:26;94983.81;;;23.20;27.06
3440;BME280;1733;42.286;22.690;2023-03-26T12:57:08;94964.69;;;23.22;28.47
3440;BME280;1733;42.286;22.690;2023-03-26T12:59:54;94969.09;;;23.39;28.22
3440;BME280;1733;42.286;22.690;2023-03-26T13:02:50;94974.34;;;24.17;26.75
3440;BME280;1733;42.286;22.690;2023-03-26T13:05:38;94963.38;;;24.47;25.72
3440;BME280;1733;42.286;22.690;2023-03-26T13:11:16;94958.19;;;26.10;25.12
3440;BME280;1733;42.286;22.690;2023-03-26T13:14:02;94965.38;;;26.72;24.32
3440;BME280;1733;42.286;22.690;2023-03-26T13:16:35;94959.25;;;26.40;23.75
3440;BME280;1733;42.286;22.690;2023-03-26T13:19:09;94955.31;;;26.69;23.42
3440;BME280;1733;42.286;22.690;2023-03-26T13:21:48;94956.94;;;26.39;22.83
3440;BME280;1733;42.286;22.690;2023-03-26T13:24:30;94954.09;;;26.86;22.60
3440;BME280;1733;42.286;22.690;2023-03-26T13:27:11;94952.19;;;27.45;22.93
3440;BME280;1733;42.286;22.690;2023-03-26T13:29:47;94944.19;;;26.55;23.32
3440;BME280;1733;42.286;22.690;2023-03-26T13:32:25;94946.13;;;27.51;23.48
3440;BME280;1733;42.286;22.690;2023-03-26T13:35:07;94934.75;;;28.64;23.16
3440;BME280;1733;42.286;22.690;2023-03-26T13:37:41;94933.34;;;28.74;21.99
3440;BME280;1733;42.286;22.690;2023-03-26T13:40:20;94923.72;;;28.46;21.93
3440;BME280;1733;42.286;22.690;2023-03-26T13:43:02;94917.16;;;28.21;21.08
3440;BME280;1733;42.286;22.690;2023-03-26T13:45:42;94924.31;;;28.62;21.40
3440;BME280;1733;42.286;22.690;2023-03-26T13:48:18;94920.63;;;29.41;21.97
3440;BME280;1733;42.286;22.690;2023-03-26T13:50:56;94915.75;;;30.02;21.85
3440;BME280;1733;42.286;22.690;2023-03-26T13:53:27;94920.78;;;30.59;20.27
3440;BME280;1733;42.286;22.690;2023-03-26T13:55:59;94912.75;;;30.77;19.84
3440;BME280;1733;42.286;22.690;2023-03-26T13:58:33;94913.06;;;30.06;19.56
3440;BME280;1733;42.286;22.690;2023-03-26T14:01:04;94914.56;;;30.03;19.56
3440;BME280;1733;42.286;22.690;2023-03-26T14:03:40;94911.09;;;28.87;20.21
3440;BME280;1733;42.286;22.690;2023-03-26T14:06:17;94905.34;;;29.23;20.91
3440;BME280;1733;42.286;22.690;2023-03-26T14:08:48;94910.56;;;30.38;21.34
3440;BME280;1733;42.286;22.690;2023-03-26T14:11:22;94908.00;;;30.01;19.94
3440;BME280;1733;42.286;22.690;2023-03-26T14:13:56;94899.84;;;30.01;20.83
3440;BME280;1733;42.286;22.690;2023-03-26T14:16:28;94895.03;;;31.18;20.46